PWSweather.com
Personal Weather Stations
Station Observations

SkegnessGB

Lat: 53.147585, Lon: 0.345774

Elevation: 18

Station Type: Fine Offset WH3080

http://www.skegnessweather.info/

High Low Average
Temperature 46.2°F7.9°C 33.6°F0.9°C 38.7°F3.7°C
Dew Point 39.8°F4.3°C 31.2°F-0.4°C 35.1°F1.7°C
Winds 12.7 mph 20.4 kmh 3.6 mph 5.8 kmh 7.0 mph S11.3 kmh S
Wind Gusts 16.0 mph25.7 kmh 4.2 mph6.8 kmh 8.0 mph12.9 kmh
Humidity 97% 74% 87%
Pressure 30.17 in1021.7 mb 30.11 in1019.6 mb -
Precipitation 0.00 in0.0 mm - -
Hour Temp Dew Point Humidity Winds Wind Gusts Pressure Precip Precip Rate Daily Precip Total
12:00 AM 36.0°F2.2°C 31.9°F-0.1°C 85% 9.0 mph SSE14.5 kmh SSE 9.1 mph14.6 kmh 30.17 in1021.7 mb 0.00 in0.0 mm 0.00 in0.0 mm 0.00 in0.0 mm
12:10 AM 35.8°F2.1°C 31.7°F-0.2°C 85% 8.2 mph S13.2 kmh S 9.1 mph14.6 kmh 30.16 in1021.3 mb 0.00 in0.0 mm 0.00 in0.0 mm 0.00 in0.0 mm
12:20 AM 35.6°F2.0°C 31.5°F-0.3°C 85% 7.8 mph SSE12.6 kmh SSE 7.6 mph12.2 kmh 30.16 in1021.3 mb 0.00 in0.0 mm 0.00 in0.0 mm 0.00 in0.0 mm
12:30 AM 35.6°F2.0°C 31.5°F-0.3°C 85% 8.1 mph S13.0 kmh S 8.4 mph13.5 kmh 30.16 in1021.3 mb 0.00 in0.0 mm 0.00 in0.0 mm 0.00 in0.0 mm
12:40 AM 35.6°F2.0°C 31.5°F-0.3°C 85% 6.3 mph S10.1 kmh S 6.6 mph10.6 kmh 30.16 in1021.3 mb 0.00 in0.0 mm 0.00 in0.0 mm 0.00 in0.0 mm
12:50 AM 35.6°F2.0°C 31.5°F-0.3°C 85% 7.0 mph S11.3 kmh S 7.6 mph12.2 kmh 30.15 in1021.0 mb 0.00 in0.0 mm 0.00 in0.0 mm 0.00 in0.0 mm
01:00 AM 35.4°F1.9°C 31.4°F-0.3°C 85% 6.4 mph S10.3 kmh S 7.6 mph12.2 kmh 30.15 in1021.0 mb 0.00 in0.0 mm 0.00 in0.0 mm 0.00 in0.0 mm
01:10 AM 35.2°F1.8°C 31.5°F-0.3°C 86% 4.7 mph SSE7.6 kmh SSE 5.9 mph9.5 kmh 30.15 in1021.0 mb 0.00 in0.0 mm 0.00 in0.0 mm 0.00 in0.0 mm
01:20 AM 35.1°F1.7°C 31.3°F-0.4°C 86% 5.7 mph S9.2 kmh S 5.9 mph9.5 kmh 30.16 in1021.3 mb 0.00 in0.0 mm 0.00 in0.0 mm 0.00 in0.0 mm
01:30 AM 35.1°F1.7°C 31.3°F-0.4°C 86% 6.1 mph SSE9.8 kmh SSE 6.6 mph10.6 kmh 30.15 in1021.0 mb 0.00 in0.0 mm 0.00 in0.0 mm 0.00 in0.0 mm
01:40 AM 35.1°F1.7°C 31.3°F-0.4°C 86% 5.6 mph S9.0 kmh S 6.6 mph10.6 kmh 30.16 in1021.3 mb 0.00 in0.0 mm 0.00 in0.0 mm 0.00 in0.0 mm
01:50 AM 34.9°F1.6°C 31.4°F-0.3°C 87% 6.3 mph S10.1 kmh S 6.6 mph10.6 kmh 30.15 in1021.0 mb 0.00 in0.0 mm 0.00 in0.0 mm 0.00 in0.0 mm
02:00 AM 34.9°F1.6°C 31.4°F-0.3°C 87% 4.3 mph S6.9 kmh S 5.9 mph9.5 kmh 30.16 in1021.3 mb 0.00 in0.0 mm 0.00 in0.0 mm 0.00 in0.0 mm
02:10 AM 34.7°F1.5°C 31.2°F-0.4°C 87% 5.1 mph S8.2 kmh S 5.9 mph9.5 kmh 30.15 in1021.0 mb 0.00 in0.0 mm 0.00 in0.0 mm 0.00 in0.0 mm
02:20 AM 34.5°F1.4°C 31.3°F-0.4°C 88% 5.1 mph SSE8.2 kmh SSE 5.9 mph9.5 kmh 30.15 in1021.0 mb 0.00 in0.0 mm 0.00 in0.0 mm 0.00 in0.0 mm
02:30 AM 34.3°F1.3°C 31.4°F-0.3°C 89% 5.6 mph SSE9.0 kmh SSE 4.9 mph7.9 kmh 30.14 in1020.7 mb 0.00 in0.0 mm 0.00 in0.0 mm 0.00 in0.0 mm
02:40 AM 34.5°F1.4°C 31.9°F-0.1°C 90% 6.7 mph S10.8 kmh S 6.6 mph10.6 kmh 30.15 in1021.0 mb 0.00 in0.0 mm 0.00 in0.0 mm 0.00 in0.0 mm
02:50 AM 34.5°F1.4°C 31.9°F-0.1°C 90% 5.9 mph S9.5 kmh S 5.9 mph9.5 kmh 30.14 in1020.7 mb 0.00 in0.0 mm 0.00 in0.0 mm 0.00 in0.0 mm
03:00 AM 34.9°F1.6°C 32.2°F0.1°C 90% 7.7 mph S12.4 kmh S 8.4 mph13.5 kmh 30.14 in1020.7 mb 0.00 in0.0 mm 0.00 in0.0 mm 0.00 in0.0 mm
03:10 AM 35.1°F1.7°C 32.1°F0.1°C 89% 8.6 mph S13.8 kmh S 7.6 mph12.2 kmh 30.14 in1020.7 mb 0.00 in0.0 mm 0.00 in0.0 mm 0.00 in0.0 mm
03:20 AM 35.1°F1.7°C 32.1°F0.1°C 89% 7.5 mph S12.1 kmh S 7.6 mph12.2 kmh 30.13 in1020.3 mb 0.00 in0.0 mm 0.00 in0.0 mm 0.00 in0.0 mm
03:30 AM 35.1°F1.7°C 32.1°F0.1°C 89% 6.8 mph S10.9 kmh S 8.4 mph13.5 kmh 30.13 in1020.3 mb 0.00 in0.0 mm 0.00 in0.0 mm 0.00 in0.0 mm
03:40 AM 34.9°F1.6°C 32.2°F0.1°C 90% 6.3 mph S10.1 kmh S 5.9 mph9.5 kmh 30.13 in1020.3 mb 0.00 in0.0 mm 0.00 in0.0 mm 0.00 in0.0 mm
03:50 AM 34.9°F1.6°C 32.2°F0.1°C 90% 6.6 mph S10.6 kmh S 6.6 mph10.6 kmh 30.13 in1020.3 mb 0.00 in0.0 mm 0.00 in0.0 mm 0.00 in0.0 mm
04:00 AM 34.9°F1.6°C 32.5°F0.3°C 91% 5.4 mph S8.7 kmh S 4.9 mph7.9 kmh 30.12 in1020.0 mb 0.00 in0.0 mm 0.00 in0.0 mm 0.00 in0.0 mm
04:10 AM 34.9°F1.6°C 32.8°F0.4°C 92% 6.0 mph S9.7 kmh S 6.6 mph10.6 kmh 30.12 in1020.0 mb 0.00 in0.0 mm 0.00 in0.0 mm 0.00 in0.0 mm
04:20 AM 34.7°F1.5°C 32.6°F0.3°C 92% 5.4 mph S8.7 kmh S 5.9 mph9.5 kmh 30.12 in1020.0 mb 0.00 in0.0 mm 0.00 in0.0 mm 0.00 in0.0 mm
04:30 AM 34.5°F1.4°C 32.4°F0.2°C 92% 4.8 mph SSE7.7 kmh SSE 5.9 mph9.5 kmh 30.12 in1020.0 mb 0.00 in0.0 mm 0.00 in0.0 mm 0.00 in0.0 mm
04:40 AM 34.5°F1.4°C 32.4°F0.2°C 92% 5.0 mph SSE8.0 kmh SSE 4.9 mph7.9 kmh 30.12 in1020.0 mb 0.00 in0.0 mm 0.00 in0.0 mm 0.00 in0.0 mm
04:50 AM 34.5°F1.4°C 32.4°F0.2°C 92% 4.6 mph S7.4 kmh S 5.9 mph9.5 kmh 30.12 in1020.0 mb 0.00 in0.0 mm 0.00 in0.0 mm 0.00 in0.0 mm
05:00 AM 34.5°F1.4°C 32.7°F0.4°C 93% 6.0 mph SSE9.7 kmh SSE 5.9 mph9.5 kmh 30.12 in1020.0 mb 0.00 in0.0 mm 0.00 in0.0 mm 0.00 in0.0 mm
05:10 AM 34.3°F1.3°C 32.5°F0.3°C 93% 4.8 mph SE7.7 kmh SE 4.9 mph7.9 kmh 30.12 in1020.0 mb 0.00 in0.0 mm 0.00 in0.0 mm 0.00 in0.0 mm
05:20 AM 34.2°F1.2°C 32.3°F0.2°C 93% 6.1 mph S9.8 kmh S 5.9 mph9.5 kmh 30.12 in1020.0 mb 0.00 in0.0 mm 0.00 in0.0 mm 0.00 in0.0 mm
05:30 AM 34.0°F1.1°C 32.2°F0.1°C 93% 5.2 mph S8.4 kmh S 5.9 mph9.5 kmh 30.11 in1019.6 mb 0.00 in0.0 mm 0.00 in0.0 mm 0.00 in0.0 mm
05:40 AM 33.8°F1.0°C 32.0°F0.0°C 93% 4.1 mph S6.6 kmh S 4.9 mph7.9 kmh 30.11 in1019.6 mb 0.00 in0.0 mm 0.00 in0.0 mm 0.00 in0.0 mm
05:50 AM 33.6°F0.9°C 31.8°F-0.1°C 93% 5.1 mph S8.2 kmh S 4.9 mph7.9 kmh 30.11 in1019.6 mb 0.00 in0.0 mm 0.00 in0.0 mm 0.00 in0.0 mm
06:00 AM 33.6°F0.9°C 31.8°F-0.1°C 93% 5.1 mph S8.2 kmh S 4.9 mph7.9 kmh 30.12 in1020.0 mb 0.00 in0.0 mm 0.00 in0.0 mm 0.00 in0.0 mm
06:10 AM 33.6°F0.9°C 31.8°F-0.1°C 93% 4.9 mph SSE7.9 kmh SSE 4.9 mph7.9 kmh 30.12 in1020.0 mb 0.00 in0.0 mm 0.00 in0.0 mm 0.00 in0.0 mm
06:20 AM 33.6°F0.9°C 31.8°F-0.1°C 93% 4.7 mph S7.6 kmh S 4.9 mph7.9 kmh 30.11 in1019.6 mb 0.00 in0.0 mm 0.00 in0.0 mm 0.00 in0.0 mm
06:30 AM 33.6°F0.9°C 31.8°F-0.1°C 93% 4.9 mph SSE7.9 kmh SSE 5.9 mph9.5 kmh 30.12 in1020.0 mb 0.00 in0.0 mm 0.00 in0.0 mm 0.00 in0.0 mm
06:40 AM 33.6°F0.9°C 31.8°F-0.1°C 93% 6.0 mph S9.7 kmh S 6.6 mph10.6 kmh 30.12 in1020.0 mb 0.00 in0.0 mm 0.00 in0.0 mm 0.00 in0.0 mm
06:50 AM 33.8°F1.0°C 32.0°F0.0°C 93% 5.8 mph S9.3 kmh S 5.9 mph9.5 kmh 30.12 in1020.0 mb 0.00 in0.0 mm 0.00 in0.0 mm 0.00 in0.0 mm
07:00 AM 34.0°F1.1°C 32.4°F0.2°C 94% 5.5 mph SSE8.9 kmh SSE 5.9 mph9.5 kmh 30.12 in1020.0 mb 0.00 in0.0 mm 0.00 in0.0 mm 0.00 in0.0 mm
07:10 AM 34.0°F1.1°C 32.4°F0.2°C 94% 5.0 mph S8.0 kmh S 6.6 mph10.6 kmh 30.12 in1020.0 mb 0.00 in0.0 mm 0.00 in0.0 mm 0.00 in0.0 mm
07:20 AM 34.2°F1.2°C 32.6°F0.3°C 94% 6.7 mph S10.8 kmh S 7.6 mph12.2 kmh 30.12 in1020.0 mb 0.00 in0.0 mm 0.00 in0.0 mm 0.00 in0.0 mm
07:30 AM 34.2°F1.2°C 32.9°F0.5°C 95% 6.4 mph SSE10.3 kmh SSE 5.9 mph9.5 kmh 30.12 in1020.0 mb 0.00 in0.0 mm 0.00 in0.0 mm 0.00 in0.0 mm
07:40 AM 34.3°F1.3°C 33.1°F0.6°C 95% 5.4 mph S8.7 kmh S 4.9 mph7.9 kmh 30.13 in1020.3 mb 0.00 in0.0 mm 0.00 in0.0 mm 0.00 in0.0 mm
07:50 AM 34.5°F1.4°C 33.5°F0.8°C 96% 4.3 mph S6.9 kmh S 4.2 mph6.8 kmh 30.13 in1020.3 mb 0.00 in0.0 mm 0.00 in0.0 mm 0.00 in0.0 mm
08:00 AM 34.9°F1.6°C 33.9°F1.1°C 96% 3.6 mph S5.8 kmh S 4.2 mph6.8 kmh 30.12 in1020.0 mb 0.00 in0.0 mm 0.00 in0.0 mm 0.00 in0.0 mm
08:10 AM 35.2°F1.8°C 34.2°F1.2°C 96% 4.2 mph S6.8 kmh S 4.9 mph7.9 kmh 30.12 in1020.0 mb 0.00 in0.0 mm 0.00 in0.0 mm 0.00 in0.0 mm
08:20 AM 35.6°F2.0°C 34.8°F1.6°C 97% 5.3 mph SSE8.5 kmh SSE 5.9 mph9.5 kmh 30.13 in1020.3 mb 0.00 in0.0 mm 0.00 in0.0 mm 0.00 in0.0 mm
08:30 AM 36.0°F2.2°C 35.2°F1.8°C 97% 5.9 mph SE9.5 kmh SE 6.6 mph10.6 kmh 30.12 in1020.0 mb 0.00 in0.0 mm 0.00 in0.0 mm 0.00 in0.0 mm
08:40 AM 36.3°F2.4°C 35.6°F2.0°C 97% 6.7 mph SSE10.8 kmh SSE 6.6 mph10.6 kmh 30.12 in1020.0 mb 0.00 in0.0 mm 0.00 in0.0 mm 0.00 in0.0 mm
08:50 AM 36.7°F2.6°C 35.9°F2.2°C 97% 6.2 mph S10.0 kmh S 5.9 mph9.5 kmh 30.12 in1020.0 mb 0.00 in0.0 mm 0.00 in0.0 mm 0.00 in0.0 mm
09:00 AM 37.0°F2.8°C 36.3°F2.4°C 97% 6.9 mph S11.1 kmh S 9.1 mph14.6 kmh 30.13 in1020.3 mb 0.00 in0.0 mm 0.00 in0.0 mm 0.00 in0.0 mm
09:10 AM 37.4°F3.0°C 36.6°F2.6°C 97% 7.4 mph ENE11.9 kmh ENE 7.6 mph12.2 kmh 30.13 in1020.3 mb 0.00 in0.0 mm 0.00 in0.0 mm 0.00 in0.0 mm
09:20 AM 37.6°F3.1°C 36.5°F2.5°C 96% 6.9 mph S11.1 kmh S 10.1 mph16.3 kmh 30.13 in1020.3 mb 0.00 in0.0 mm 0.00 in0.0 mm 0.00 in0.0 mm
09:30 AM 37.9°F3.3°C 36.6°F2.6°C 95% 7.4 mph SSW11.9 kmh SSW 10.1 mph16.3 kmh 30.13 in1020.3 mb 0.00 in0.0 mm 0.00 in0.0 mm 0.00 in0.0 mm
09:40 AM 38.5°F3.6°C 37.2°F2.9°C 95% 7.0 mph SSE11.3 kmh SSE 8.4 mph13.5 kmh 30.12 in1020.0 mb 0.00 in0.0 mm 0.00 in0.0 mm 0.00 in0.0 mm
09:50 AM 39.7°F4.3°C 38.2°F3.4°C 94% 9.5 mph S15.3 kmh S 10.1 mph16.3 kmh 30.12 in1020.0 mb 0.00 in0.0 mm 0.00 in0.0 mm 0.00 in0.0 mm
10:00 AM 40.3°F4.6°C 38.1°F3.4°C 92% 10.0 mph SSE16.1 kmh SSE 10.8 mph17.4 kmh 30.12 in1020.0 mb 0.00 in0.0 mm 0.00 in0.0 mm 0.00 in0.0 mm
10:10 AM 40.1°F4.5°C 37.1°F2.8°C 89% 11.0 mph SE17.7 kmh SE 12.5 mph20.1 kmh 30.12 in1020.0 mb 0.00 in0.0 mm 0.00 in0.0 mm 0.00 in0.0 mm
10:20 AM 40.1°F4.5°C 37.1°F2.8°C 89% 9.2 mph SSW14.8 kmh SSW 10.1 mph16.3 kmh 30.13 in1020.3 mb 0.00 in0.0 mm 0.00 in0.0 mm 0.00 in0.0 mm
10:30 AM 40.1°F4.5°C 37.1°F2.8°C 89% 9.5 mph SW15.3 kmh SW 10.8 mph17.4 kmh 30.13 in1020.3 mb 0.00 in0.0 mm 0.00 in0.0 mm 0.00 in0.0 mm
10:40 AM 40.6°F4.8°C 37.7°F3.2°C 89% 10.5 mph SSW16.9 kmh SSW 10.1 mph16.3 kmh 30.13 in1020.3 mb 0.00 in0.0 mm 0.00 in0.0 mm 0.00 in0.0 mm
10:50 AM 40.6°F4.8°C 37.7°F3.2°C 89% 10.1 mph S16.3 kmh S 10.1 mph16.3 kmh 30.13 in1020.3 mb 0.00 in0.0 mm 0.00 in0.0 mm 0.00 in0.0 mm
11:00 AM 40.8°F4.9°C 37.8°F3.2°C 89% 10.3 mph SSE16.6 kmh SSE 9.1 mph14.6 kmh 30.14 in1020.7 mb 0.00 in0.0 mm 0.00 in0.0 mm 0.00 in0.0 mm
11:10 AM 40.6°F4.8°C 37.4°F3.0°C 88% 9.5 mph S15.3 kmh S 8.4 mph13.5 kmh 30.14 in1020.7 mb 0.00 in0.0 mm 0.00 in0.0 mm 0.00 in0.0 mm
11:20 AM 41.4°F5.2°C 37.8°F3.2°C 87% 10.4 mph SSE16.7 kmh SSE 10.1 mph16.3 kmh 30.14 in1020.7 mb 0.00 in0.0 mm 0.00 in0.0 mm 0.00 in0.0 mm
11:30 AM 40.5°F4.7°C 36.9°F2.7°C 87% 10.2 mph S16.4 kmh S 10.8 mph17.4 kmh 30.13 in1020.3 mb 0.00 in0.0 mm 0.00 in0.0 mm 0.00 in0.0 mm
11:40 AM 41.7°F5.4°C 38.4°F3.6°C 88% 10.7 mph SSE17.2 kmh SSE 11.8 mph19.0 kmh 30.13 in1020.3 mb 0.00 in0.0 mm 0.00 in0.0 mm 0.00 in0.0 mm
11:50 AM 42.6°F5.9°C 39.0°F3.9°C 87% 9.4 mph SSW15.1 kmh SSW 9.1 mph14.6 kmh 30.14 in1020.7 mb 0.00 in0.0 mm 0.00 in0.0 mm 0.00 in0.0 mm
12:00 PM 42.6°F5.9°C 38.7°F3.7°C 86% 8.8 mph SSW14.2 kmh SSW 10.8 mph17.4 kmh 30.14 in1020.7 mb 0.00 in0.0 mm 0.00 in0.0 mm 0.00 in0.0 mm
12:10 PM 42.4°F5.8°C 38.5°F3.6°C 86% 10.6 mph S17.1 kmh S 11.8 mph19.0 kmh 30.14 in1020.7 mb 0.00 in0.0 mm 0.00 in0.0 mm 0.00 in0.0 mm
12:20 PM 42.3°F5.7°C 38.4°F3.6°C 86% 8.4 mph S13.5 kmh S 8.4 mph13.5 kmh 30.14 in1020.7 mb 0.00 in0.0 mm 0.00 in0.0 mm 0.00 in0.0 mm
12:30 PM 42.3°F5.7°C 38.7°F3.7°C 87% 8.3 mph S13.4 kmh S 9.1 mph14.6 kmh 30.13 in1020.3 mb 0.00 in0.0 mm 0.00 in0.0 mm 0.00 in0.0 mm
12:40 PM 42.6°F5.9°C 39.0°F3.9°C 87% 10.0 mph S16.1 kmh S 11.8 mph19.0 kmh 30.13 in1020.3 mb 0.00 in0.0 mm 0.00 in0.0 mm 0.00 in0.0 mm
12:50 PM 43.2°F6.2°C 38.3°F3.5°C 83% 11.6 mph S18.7 kmh S 12.5 mph20.1 kmh 30.12 in1020.0 mb 0.00 in0.0 mm 0.00 in0.0 mm 0.00 in0.0 mm
01:00 PM 45.3°F7.4°C 39.8°F4.3°C 81% 10.8 mph S17.4 kmh S 12.5 mph20.1 kmh 30.12 in1020.0 mb 0.00 in0.0 mm 0.00 in0.0 mm 0.00 in0.0 mm
01:10 PM 45.9°F7.7°C 39.1°F3.9°C 77% 12.6 mph S20.3 kmh S 11.8 mph19.0 kmh 30.13 in1020.3 mb 0.00 in0.0 mm 0.00 in0.0 mm 0.00 in0.0 mm
01:20 PM 46.2°F7.9°C 38.7°F3.7°C 75% 10.6 mph S17.1 kmh S 12.5 mph20.1 kmh 30.13 in1020.3 mb 0.00 in0.0 mm 0.00 in0.0 mm 0.00 in0.0 mm
01:30 PM 46.0°F7.8°C 38.6°F3.7°C 75% 10.5 mph S16.9 kmh S 16.0 mph25.7 kmh 30.13 in1020.3 mb 0.00 in0.0 mm 0.00 in0.0 mm 0.00 in0.0 mm
01:40 PM 45.9°F7.7°C 38.0°F3.3°C 74% 12.7 mph S20.4 kmh S 14.3 mph23.0 kmh 30.12 in1020.0 mb 0.00 in0.0 mm 0.00 in0.0 mm 0.00 in0.0 mm
01:50 PM 45.9°F7.7°C 38.4°F3.6°C 75% 11.0 mph S17.7 kmh S 14.3 mph23.0 kmh 30.12 in1020.0 mb 0.00 in0.0 mm 0.00 in0.0 mm 0.00 in0.0 mm
02:00 PM 46.0°F7.8°C 38.2°F3.4°C 74% 11.4 mph S18.3 kmh S 11.8 mph19.0 kmh 30.12 in1020.0 mb 0.00 in0.0 mm 0.00 in0.0 mm 0.00 in0.0 mm
02:10 PM 45.9°F7.7°C 38.4°F3.6°C 75% 8.7 mph SSW14.0 kmh SSW 10.8 mph17.4 kmh 30.12 in1020.0 mb 0.00 in0.0 mm 0.00 in0.0 mm 0.00 in0.0 mm
02:20 PM 45.1°F7.3°C 38.0°F3.3°C 76% 11.4 mph S18.3 kmh S 11.8 mph19.0 kmh 30.12 in1020.0 mb 0.00 in0.0 mm 0.00 in0.0 mm 0.00 in0.0 mm
02:30 PM 45.0°F7.2°C 38.2°F3.4°C 77% 9.0 mph SW14.5 kmh SW 10.1 mph16.3 kmh 30.12 in1020.0 mb 0.00 in0.0 mm 0.00 in0.0 mm 0.00 in0.0 mm
02:40 PM 44.4°F6.9°C 38.0°F3.3°C 78% 9.1 mph S14.6 kmh S 10.8 mph17.4 kmh 30.13 in1020.3 mb 0.00 in0.0 mm 0.00 in0.0 mm 0.00 in0.0 mm
02:50 PM 44.2°F6.8°C 38.1°F3.4°C 79% 5.2 mph SW8.4 kmh SW 7.6 mph12.2 kmh 30.13 in1020.3 mb 0.00 in0.0 mm 0.00 in0.0 mm 0.00 in0.0 mm
03:00 PM 43.7°F6.5°C 37.9°F3.3°C 80% 4.9 mph SSW7.9 kmh SSW 7.6 mph12.2 kmh 30.13 in1020.3 mb 0.00 in0.0 mm 0.00 in0.0 mm 0.00 in0.0 mm
03:10 PM 43.5°F6.4°C 38.1°F3.4°C 81% 8.5 mph SSE13.7 kmh SSE 10.1 mph16.3 kmh 30.13 in1020.3 mb 0.00 in0.0 mm 0.00 in0.0 mm 0.00 in0.0 mm
03:20 PM 43.7°F6.5°C 38.3°F3.5°C 81% 6.8 mph SSE10.9 kmh SSE 7.6 mph12.2 kmh 30.13 in1020.3 mb 0.00 in0.0 mm 0.00 in0.0 mm 0.00 in0.0 mm
03:30 PM 44.1°F6.7°C 38.6°F3.7°C 81% 6.9 mph S11.1 kmh S 7.6 mph12.2 kmh 30.12 in1020.0 mb 0.00 in0.0 mm 0.00 in0.0 mm 0.00 in0.0 mm
03:40 PM 44.1°F6.7°C 38.3°F3.5°C 80% 6.6 mph S10.6 kmh S 8.4 mph13.5 kmh 30.13 in1020.3 mb 0.00 in0.0 mm 0.00 in0.0 mm 0.00 in0.0 mm
03:50 PM 44.2°F6.8°C 38.1°F3.4°C 79% 6.5 mph S10.5 kmh S 7.6 mph12.2 kmh 30.12 in1020.0 mb 0.00 in0.0 mm 0.00 in0.0 mm 0.00 in0.0 mm
04:00 PM 44.2°F6.8°C 37.5°F3.1°C 77% 7.6 mph S12.2 kmh S 9.1 mph14.6 kmh 30.12 in1020.0 mb 0.00 in0.0 mm 0.00 in0.0 mm 0.00 in0.0 mm
04:10 PM 44.2°F6.8°C 37.8°F3.2°C 78% 7.9 mph SSE12.7 kmh SSE 10.1 mph16.3 kmh 30.12 in1020.0 mb 0.00 in0.0 mm 0.00 in0.0 mm 0.00 in0.0 mm
04:20 PM 43.9°F6.6°C 37.5°F3.1°C 78% 7.3 mph S11.7 kmh S 8.4 mph13.5 kmh 30.12 in1020.0 mb 0.00 in0.0 mm 0.00 in0.0 mm 0.00 in0.0 mm
04:30 PM 43.7°F6.5°C 37.3°F2.9°C 78% 5.2 mph SW8.4 kmh SW 5.9 mph9.5 kmh 30.12 in1020.0 mb 0.00 in0.0 mm 0.00 in0.0 mm 0.00 in0.0 mm
04:50 PM 43.3°F6.3°C 37.3°F2.9°C 79% 7.1 mph S11.4 kmh S 7.6 mph12.2 kmh 30.12 in1020.0 mb 0.00 in0.0 mm 0.00 in0.0 mm 0.00 in0.0 mm
05:00 PM 43.0°F6.1°C 36.9°F2.7°C 79% 7.4 mph S11.9 kmh S 8.4 mph13.5 kmh 30.12 in1020.0 mb 0.00 in0.0 mm 0.00 in0.0 mm 0.00 in0.0 mm
05:10 PM 42.6°F5.9°C 38.1°F3.4°C 84% 7.7 mph SE12.4 kmh SE 6.6 mph10.6 kmh 30.13 in1020.3 mb 0.00 in0.0 mm 0.00 in0.0 mm 0.00 in0.0 mm
05:20 PM 42.4°F5.8°C 37.9°F3.3°C 84% 5.9 mph S9.5 kmh S 5.9 mph9.5 kmh 30.13 in1020.3 mb 0.00 in0.0 mm 0.00 in0.0 mm 0.00 in0.0 mm
05:30 PM 42.3°F5.7°C 37.8°F3.2°C 84% 5.2 mph SSE8.4 kmh SSE 5.9 mph9.5 kmh 30.14 in1020.7 mb 0.00 in0.0 mm 0.00 in0.0 mm 0.00 in0.0 mm
05:40 PM 42.1°F5.6°C 37.6°F3.1°C 84% 6.1 mph S9.8 kmh S 5.9 mph9.5 kmh 30.14 in1020.7 mb 0.00 in0.0 mm 0.00 in0.0 mm 0.00 in0.0 mm
05:50 PM 41.7°F5.4°C 37.5°F3.1°C 85% 4.3 mph SW6.9 kmh SW 5.9 mph9.5 kmh 30.14 in1020.7 mb 0.00 in0.0 mm 0.00 in0.0 mm 0.00 in0.0 mm
06:00 PM 41.4°F5.2°C 37.5°F3.1°C 86% 5.3 mph SSE8.5 kmh SSE 5.9 mph9.5 kmh 30.14 in1020.7 mb 0.00 in0.0 mm 0.00 in0.0 mm 0.00 in0.0 mm
06:10 PM 41.4°F5.2°C 37.5°F3.1°C 86% 5.1 mph S8.2 kmh S 5.9 mph9.5 kmh 30.14 in1020.7 mb 0.00 in0.0 mm 0.00 in0.0 mm 0.00 in0.0 mm
06:20 PM 41.4°F5.2°C 37.5°F3.1°C 86% 6.7 mph S10.8 kmh S 5.9 mph9.5 kmh 30.15 in1021.0 mb 0.00 in0.0 mm 0.00 in0.0 mm 0.00 in0.0 mm
06:30 PM 41.5°F5.3°C 37.7°F3.2°C 86% 6.2 mph S10.0 kmh S 6.6 mph10.6 kmh 30.14 in1020.7 mb 0.00 in0.0 mm 0.00 in0.0 mm 0.00 in0.0 mm
06:40 PM 41.7°F5.4°C 37.5°F3.1°C 85% 5.6 mph S9.0 kmh S 6.6 mph10.6 kmh 30.14 in1020.7 mb 0.00 in0.0 mm 0.00 in0.0 mm 0.00 in0.0 mm
06:50 PM 41.4°F5.2°C 37.2°F2.9°C 85% 6.0 mph S9.7 kmh S 7.6 mph12.2 kmh 30.15 in1021.0 mb 0.00 in0.0 mm 0.00 in0.0 mm 0.00 in0.0 mm
07:00 PM 40.6°F4.8°C 36.8°F2.7°C 86% 4.6 mph S7.4 kmh S 4.2 mph6.8 kmh 30.15 in1021.0 mb 0.00 in0.0 mm 0.00 in0.0 mm 0.00 in0.0 mm
07:10 PM 40.3°F4.6°C 36.4°F2.4°C 86% 4.0 mph SSE6.4 kmh SSE 4.2 mph6.8 kmh 30.15 in1021.0 mb 0.00 in0.0 mm 0.00 in0.0 mm 0.00 in0.0 mm
07:20 PM 39.9°F4.4°C 36.4°F2.4°C 87% 5.5 mph S8.9 kmh S 5.9 mph9.5 kmh 30.15 in1021.0 mb 0.00 in0.0 mm 0.00 in0.0 mm 0.00 in0.0 mm
07:30 PM 39.7°F4.3°C 36.2°F2.3°C 87% 4.5 mph SW7.2 kmh SW 5.9 mph9.5 kmh 30.15 in1021.0 mb 0.00 in0.0 mm 0.00 in0.0 mm 0.00 in0.0 mm
07:40 PM 39.9°F4.4°C 36.4°F2.4°C 87% 5.5 mph S8.9 kmh S 8.4 mph13.5 kmh 30.14 in1020.7 mb 0.00 in0.0 mm 0.00 in0.0 mm 0.00 in0.0 mm
07:50 PM 39.7°F4.3°C 35.9°F2.2°C 86% 5.2 mph S8.4 kmh S 8.4 mph13.5 kmh 30.15 in1021.0 mb 0.00 in0.0 mm 0.00 in0.0 mm 0.00 in0.0 mm
08:00 PM 39.6°F4.2°C 35.7°F2.1°C 86% 3.9 mph SSW6.3 kmh SSW 4.9 mph7.9 kmh 30.16 in1021.3 mb 0.00 in0.0 mm 0.00 in0.0 mm 0.00 in0.0 mm
08:10 PM 39.4°F4.1°C 35.5°F1.9°C 86% 6.0 mph SSE9.7 kmh SSE 6.6 mph10.6 kmh 30.16 in1021.3 mb 0.00 in0.0 mm 0.00 in0.0 mm 0.00 in0.0 mm
08:20 PM 39.4°F4.1°C 35.8°F2.1°C 87% 5.2 mph SSW8.4 kmh SSW 5.9 mph9.5 kmh 30.16 in1021.3 mb 0.00 in0.0 mm 0.00 in0.0 mm 0.00 in0.0 mm
08:30 PM 39.2°F4.0°C 35.7°F2.1°C 87% 5.8 mph S9.3 kmh S 5.9 mph9.5 kmh 30.16 in1021.3 mb 0.00 in0.0 mm 0.00 in0.0 mm 0.00 in0.0 mm
08:40 PM 38.8°F3.8°C 35.3°F1.8°C 87% 4.4 mph SSE7.1 kmh SSE 4.9 mph7.9 kmh 30.16 in1021.3 mb 0.00 in0.0 mm 0.00 in0.0 mm 0.00 in0.0 mm
08:50 PM 38.5°F3.6°C 34.9°F1.6°C 87% 4.4 mph SSE7.1 kmh SSE 6.6 mph10.6 kmh 30.16 in1021.3 mb 0.00 in0.0 mm 0.00 in0.0 mm 0.00 in0.0 mm
09:00 PM 38.1°F3.4°C 35.2°F1.8°C 89% 5.8 mph SE9.3 kmh SE 5.9 mph9.5 kmh 30.16 in1021.3 mb 0.00 in0.0 mm 0.00 in0.0 mm 0.00 in0.0 mm
09:10 PM 37.9°F3.3°C 35.3°F1.8°C 90% 7.7 mph S12.4 kmh S 5.9 mph9.5 kmh 30.16 in1021.3 mb 0.00 in0.0 mm 0.00 in0.0 mm 0.00 in0.0 mm
09:20 PM 37.9°F3.3°C 35.0°F1.7°C 89% 5.8 mph S9.3 kmh S 5.9 mph9.5 kmh 30.16 in1021.3 mb 0.00 in0.0 mm 0.00 in0.0 mm 0.00 in0.0 mm
09:30 PM 37.9°F3.3°C 34.4°F1.3°C 87% 6.3 mph S10.1 kmh S 7.6 mph12.2 kmh 30.16 in1021.3 mb 0.00 in0.0 mm 0.00 in0.0 mm 0.00 in0.0 mm
09:40 PM 37.9°F3.3°C 34.4°F1.3°C 87% 7.7 mph SE12.4 kmh SE 7.6 mph12.2 kmh 30.16 in1021.3 mb 0.00 in0.0 mm 0.00 in0.0 mm 0.00 in0.0 mm
09:50 PM 37.6°F3.1°C 34.1°F1.2°C 87% 6.5 mph SSE10.5 kmh SSE 6.6 mph10.6 kmh 30.16 in1021.3 mb 0.00 in0.0 mm 0.00 in0.0 mm 0.00 in0.0 mm
10:00 PM 37.6°F3.1°C 34.1°F1.2°C 87% 6.7 mph S10.8 kmh S 7.6 mph12.2 kmh 30.16 in1021.3 mb 0.00 in0.0 mm 0.00 in0.0 mm 0.00 in0.0 mm
10:10 PM 37.8°F3.2°C 33.9°F1.1°C 86% 8.5 mph S13.7 kmh S 9.1 mph14.6 kmh 30.17 in1021.7 mb 0.00 in0.0 mm 0.00 in0.0 mm 0.00 in0.0 mm
10:20 PM 37.6°F3.1°C 33.8°F1.0°C 86% 7.6 mph S12.2 kmh S 9.1 mph14.6 kmh 30.16 in1021.3 mb 0.00 in0.0 mm 0.00 in0.0 mm 0.00 in0.0 mm
10:30 PM 37.8°F3.2°C 33.7°F0.9°C 85% 9.8 mph SSE15.8 kmh SSE 10.1 mph16.3 kmh 30.16 in1021.3 mb 0.00 in0.0 mm 0.00 in0.0 mm 0.00 in0.0 mm
10:40 PM 37.6°F3.1°C 33.5°F0.8°C 85% 8.5 mph S13.7 kmh S 9.1 mph14.6 kmh 30.16 in1021.3 mb 0.00 in0.0 mm 0.00 in0.0 mm 0.00 in0.0 mm
10:50 PM 37.8°F3.2°C 33.4°F0.8°C 84% 9.4 mph S15.1 kmh S 9.1 mph14.6 kmh 30.16 in1021.3 mb 0.00 in0.0 mm 0.00 in0.0 mm 0.00 in0.0 mm
11:00 PM 37.6°F3.1°C 33.2°F0.7°C 84% 9.1 mph S14.6 kmh S 9.1 mph14.6 kmh 30.16 in1021.3 mb 0.00 in0.0 mm 0.00 in0.0 mm 0.00 in0.0 mm
11:10 PM 37.4°F3.0°C 33.0°F0.6°C 84% 7.0 mph NNE11.3 kmh NNE 8.4 mph13.5 kmh 30.16 in1021.3 mb 0.00 in0.0 mm 0.00 in0.0 mm 0.00 in0.0 mm
11:20 PM 37.4°F3.0°C 33.0°F0.6°C 84% 8.7 mph SSW14.0 kmh SSW 8.4 mph13.5 kmh 30.16 in1021.3 mb 0.00 in0.0 mm 0.00 in0.0 mm 0.00 in0.0 mm
11:30 PM 37.4°F3.0°C 32.7°F0.4°C 83% 10.2 mph SSE16.4 kmh SSE 10.8 mph17.4 kmh 30.16 in1021.3 mb 0.00 in0.0 mm 0.00 in0.0 mm 0.00 in0.0 mm
11:40 PM 37.4°F3.0°C 32.7°F0.4°C 83% 8.9 mph SSE14.3 kmh SSE 10.1 mph16.3 kmh 30.16 in1021.3 mb 0.00 in0.0 mm 0.00 in0.0 mm 0.00 in0.0 mm
11:50 PM 37.2°F2.9°C 32.5°F0.3°C 83% 7.9 mph S12.7 kmh S 8.4 mph13.5 kmh 30.16 in1021.3 mb 0.00 in0.0 mm 0.00 in0.0 mm 0.00 in0.0 mm